sensor_id;sensor_type;location;lat;lon;timestamp;temperature;humidity
67769;DHT22;54569;52.018;5.584;2024-03-08T00:02:03;4.30;68.80
67769;DHT22;54569;52.018;5.584;2024-03-08T00:04:29;4.30;68.40
67769;DHT22;54569;52.018;5.584;2024-03-08T00:06:55;4.20;68.80
67769;DHT22;54569;52.018;5.584;2024-03-08T00:09:21;4.20;68.80
67769;DHT22;54569;52.018;5.584;2024-03-08T00:11:47;4.20;68.50
67769;DHT22;54569;52.018;5.584;2024-03-08T00:14:15;4.20;68.80
67769;DHT22;54569;52.018;5.584;2024-03-08T00:16:41;4.10;68.50
67769;DHT22;54569;52.018;5.584;2024-03-08T00:19:09;4.10;68.60
67769;DHT22;54569;52.018;5.584;2024-03-08T00:21:35;4.10;69.10
67769;DHT22;54569;52.018;5.584;2024-03-08T00:24:01;4.10;68.90
67769;DHT22;54569;52.018;5.584;2024-03-08T00:26:27;4.00;68.90
67769;DHT22;54569;52.018;5.584;2024-03-08T00:28:54;4.00;68.70
67769;DHT22;54569;52.018;5.584;2024-03-08T00:31:20;4.00;68.60
67769;DHT22;54569;52.018;5.584;2024-03-08T00:33:46;3.90;69.20
67769;DHT22;54569;52.018;5.584;2024-03-08T00:36:11;4.00;68.90
67769;DHT22;54569;52.018;5.584;2024-03-08T00:38:37;3.90;68.70
67769;DHT22;54569;52.018;5.584;2024-03-08T00:41:03;3.90;68.50
67769;DHT22;54569;52.018;5.584;2024-03-08T00:43:29;3.90;68.80
67769;DHT22;54569;52.018;5.584;2024-03-08T00:45:56;3.80;69.00
67769;DHT22;54569;52.018;5.584;2024-03-08T00:48:23;3.80;69.00
67769;DHT22;54569;52.018;5.584;2024-03-08T00:50:49;3.80;68.90
67769;DHT22;54569;52.018;5.584;2024-03-08T00:53:15;3.80;69.10
67769;DHT22;54569;52.018;5.584;2024-03-08T00:55:41;3.80;69.20
67769;DHT22;54569;52.018;5.584;2024-03-08T00:58:07;3.80;69.20
67769;DHT22;54569;52.018;5.584;2024-03-08T01:00:35;3.70;68.70
67769;DHT22;54569;52.018;5.584;2024-03-08T01:03:01;3.70;69.00
67769;DHT22;54569;52.018;5.584;2024-03-08T01:05:28;3.70;69.20
67769;DHT22;54569;52.018;5.584;2024-03-08T01:07:54;3.70;69.10
67769;DHT22;54569;52.018;5.584;2024-03-08T01:10:20;3.70;69.50
67769;DHT22;54569;52.018;5.584;2024-03-08T01:12:46;3.60;68.90
67769;DHT22;54569;52.018;5.584;2024-03-08T01:15:12;3.60;69.10
67769;DHT22;54569;52.018;5.584;2024-03-08T01:17:38;3.60;69.30
67769;DHT22;54569;52.018;5.584;2024-03-08T01:20:04;3.60;69.60
67769;DHT22;54569;52.018;5.584;2024-03-08T01:22:30;3.50;69.00
67769;DHT22;54569;52.018;5.584;2024-03-08T01:24:57;3.50;69.60
67769;DHT22;54569;52.018;5.584;2024-03-08T01:27:23;3.50;69.70
67769;DHT22;54569;52.018;5.584;2024-03-08T01:29:50;3.50;69.60
67769;DHT22;54569;52.018;5.584;2024-03-08T01:32:16;3.50;69.50
67769;DHT22;54569;52.018;5.584;2024-03-08T01:34:42;3.40;69.50
67769;DHT22;54569;52.018;5.584;2024-03-08T01:37:10;3.40;69.60
67769;DHT22;54569;52.018;5.584;2024-03-08T01:39:36;3.40;69.80
67769;DHT22;54569;52.018;5.584;2024-03-08T01:42:02;3.40;69.50
67769;DHT22;54569;52.018;5.584;2024-03-08T01:44:27;3.40;69.70
67769;DHT22;54569;52.018;5.584;2024-03-08T01:46:53;3.30;69.60
67769;DHT22;54569;52.018;5.584;2024-03-08T01:49:21;3.30;69.40
67769;DHT22;54569;52.018;5.584;2024-03-08T01:51:48;3.30;69.80
67769;DHT22;54569;52.018;5.584;2024-03-08T01:54:17;3.30;69.60
67769;DHT22;54569;52.018;5.584;2024-03-08T01:56:44;3.20;69.70
67769;DHT22;54569;52.018;5.584;2024-03-08T01:59:10;3.20;69.80
67769;DHT22;54569;52.018;5.584;2024-03-08T02:01:36;3.20;69.50
67769;DHT22;54569;52.018;5.584;2024-03-08T02:04:01;3.20;69.50
67769;DHT22;54569;52.018;5.584;2024-03-08T02:06:27;3.20;69.30
67769;DHT22;54569;52.018;5.584;2024-03-08T02:08:53;3.10;69.30
67769;DHT22;54569;52.018;5.584;2024-03-08T02:11:19;3.10;69.70
67769;DHT22;54569;52.018;5.584;2024-03-08T02:13:46;3.10;69.50
67769;DHT22;54569;52.018;5.584;2024-03-08T02:16:12;3.10;69.40
67769;DHT22;54569;52.018;5.584;2024-03-08T02:18:38;3.10;69.30
67769;DHT22;54569;52.018;5.584;2024-03-08T02:21:06;3.00;69.60
67769;DHT22;54569;52.018;5.584;2024-03-08T02:23:32;3.10;69.80
67769;DHT22;54569;52.018;5.584;2024-03-08T02:25:58;3.00;69.20
67769;DHT22;54569;52.018;5.584;2024-03-08T02:28:25;3.00;69.60
67769;DHT22;54569;52.018;5.584;2024-03-08T02:30:51;3.00;69.30
67769;DHT22;54569;52.018;5.584;2024-03-08T02:33:20;2.90;69.40
67769;DHT22;54569;52.018;5.584;2024-03-08T02:35:46;2.90;69.10
67769;DHT22;54569;52.018;5.584;2024-03-08T02:38:20;2.90;69.60
67769;DHT22;54569;52.018;5.584;2024-03-08T02:40:47;2.90;69.40
67769;DHT22;54569;52.018;5.584;2024-03-08T02:43:14;2.80;69.20
67769;DHT22;54569;52.018;5.584;2024-03-08T02:45:46;2.80;69.30
67769;DHT22;54569;52.018;5.584;2024-03-08T02:48:13;2.80;69.20
67769;DHT22;54569;52.018;5.584;2024-03-08T02:50:39;2.80;69.40
67769;DHT22;54569;52.018;5.584;2024-03-08T02:53:06;2.80;69.20
67769;DHT22;54569;52.018;5.584;2024-03-08T02:55:32;2.70;69.40
67769;DHT22;54569;52.018;5.584;2024-03-08T02:58:02;2.70;69.10
67769;DHT22;54569;52.018;5.584;2024-03-08T03:00:29;2.70;69.40
67769;DHT22;54569;52.018;5.584;2024-03-08T03:02:59;2.70;69.10
67769;DHT22;54569;52.018;5.584;2024-03-08T03:05:29;2.70;69.40
67769;DHT22;54569;52.018;5.584;2024-03-08T03:07:57;2.60;69.30
67769;DHT22;54569;52.018;5.584;2024-03-08T03:10:26;2.60;69.40
67769;DHT22;54569;52.018;5.584;2024-03-08T03:12:52;2.60;69.20
67769;DHT22;54569;52.018;5.584;2024-03-08T03:15:18;2.60;69.80
67769;DHT22;54569;52.018;5.584;2024-03-08T03:17:48;2.60;69.80
67769;DHT22;54569;52.018;5.584;2024-03-08T03:20:14;2.60;69.50
67769;DHT22;54569;52.018;5.584;2024-03-08T03:22:41;2.60;69.80
67769;DHT22;54569;52.018;5.584;2024-03-08T03:25:08;2.50;69.10
67769;DHT22;54569;52.018;5.584;2024-03-08T03:27:35;2.50;69.30
67769;DHT22;54569;52.018;5.584;2024-03-08T03:30:01;2.50;69.60
67769;DHT22;54569;52.018;5.584;2024-03-08T03:32:47;2.50;69.50
67769;DHT22;54569;52.018;5.584;2024-03-08T03:35:14;2.40;69.40
67769;DHT22;54569;52.018;5.584;2024-03-08T03:37:41;2.40;69.80
67769;DHT22;54569;52.018;5.584;2024-03-08T03:40:09;2.40;69.50
67769;DHT22;54569;52.018;5.584;2024-03-08T03:42:35;2.40;69.60
67769;DHT22;54569;52.018;5.584;2024-03-08T03:45:05;2.40;69.90
67769;DHT22;54569;52.018;5.584;2024-03-08T03:47:31;2.40;69.50
67769;DHT22;54569;52.018;5.584;2024-03-08T03:49:57;2.40;69.90
67769;DHT22;54569;52.018;5.584;2024-03-08T03:52:27;2.30;69.70
67769;DHT22;54569;52.018;5.584;2024-03-08T03:54:53;2.30;69.50
67769;DHT22;54569;52.018;5.584;2024-03-08T03:57:19;2.30;69.50
67769;DHT22;54569;52.018;5.584;2024-03-08T03:59:45;2.30;69.50
67769;DHT22;54569;52.018;5.584;2024-03-08T04:02:13;2.30;69.80
67769;DHT22;54569;52.018;5.584;2024-03-08T04:04:38;2.30;69.60
67769;DHT22;54569;52.018;5.584;2024-03-08T04:07:04;2.20;69.50
67769;DHT22;54569;52.018;5.584;2024-03-08T04:09:30;2.20;69.80
67769;DHT22;54569;52.018;5.584;2024-03-08T04:11:56;2.20;69.60
67769;DHT22;54569;52.018;5.584;2024-03-08T04:14:23;2.20;69.50
67769;DHT22;54569;52.018;5.584;2024-03-08T04:16:49;2.20;69.50
67769;DHT22;54569;52.018;5.584;2024-03-08T04:19:14;2.10;69.70
67769;DHT22;54569;52.018;5.584;2024-03-08T04:21:40;2.10;69.70
67769;DHT22;54569;52.018;5.584;2024-03-08T04:24:07;2.10;69.60
67769;DHT22;54569;52.018;5.584;2024-03-08T04:26:34;2.10;69.90
67769;DHT22;54569;52.018;5.584;2024-03-08T04:29:00;2.10;69.90
67769;DHT22;54569;52.018;5.584;2024-03-08T04:31:27;2.10;69.80
67769;DHT22;54569;52.018;5.584;2024-03-08T04:33:52;2.10;69.60
67769;DHT22;54569;52.018;5.584;2024-03-08T04:36:18;2.00;69.30
67769;DHT22;54569;52.018;5.584;2024-03-08T04:38:45;2.00;69.60
67769;DHT22;54569;52.018;5.584;2024-03-08T04:41:11;2.00;69.80
67769;DHT22;54569;52.018;5.584;2024-03-08T04:43:37;2.00;69.80
67769;DHT22;54569;52.018;5.584;2024-03-08T04:46:03;2.00;69.50
67769;DHT22;54569;52.018;5.584;2024-03-08T04:48:29;2.00;69.80
67769;DHT22;54569;52.018;5.584;2024-03-08T04:50:55;2.00;70.00
67769;DHT22;54569;52.018;5.584;2024-03-08T04:53:21;2.00;70.10
67769;DHT22;54569;52.018;5.584;2024-03-08T04:55:47;2.00;70.00
67769;DHT22;54569;52.018;5.584;2024-03-08T04:58:13;1.90;69.80
67769;DHT22;54569;52.018;5.584;2024-03-08T05:00:39;1.90;70.00
67769;DHT22;54569;52.018;5.584;2024-03-08T05:03:05;1.90;69.90
67769;DHT22;54569;52.018;5.584;2024-03-08T05:05:31;1.90;70.00
67769;DHT22;54569;52.018;5.584;2024-03-08T05:07:56;1.90;70.10
67769;DHT22;54569;52.018;5.584;2024-03-08T05:10:22;1.90;70.00
67769;DHT22;54569;52.018;5.584;2024-03-08T05:12:48;1.90;70.00
67769;DHT22;54569;52.018;5.584;2024-03-08T05:15:14;1.90;69.80
67769;DHT22;54569;52.018;5.584;2024-03-08T05:17:40;1.80;69.70
67769;DHT22;54569;52.018;5.584;2024-03-08T05:20:08;1.80;69.90
67769;DHT22;54569;52.018;5.584;2024-03-08T05:22:34;1.80;70.20
67769;DHT22;54569;52.018;5.584;2024-03-08T05:25:00;1.80;70.10
67769;DHT22;54569;52.018;5.584;2024-03-08T05:27:26;1.80;69.90
67769;DHT22;54569;52.018;5.584;2024-03-08T05:29:53;1.80;70.00
67769;DHT22;54569;52.018;5.584;2024-03-08T05:32:19;1.80;69.60
67769;DHT22;54569;52.018;5.584;2024-03-08T05:34:45;1.80;70.20
67769;DHT22;54569;52.018;5.584;2024-03-08T05:37:11;1.70;69.90
67769;DHT22;54569;52.018;5.584;2024-03-08T05:39:37;1.80;70.30
67769;DHT22;54569;52.018;5.584;2024-03-08T05:42:03;1.70;70.10
67769;DHT22;54569;52.018;5.584;2024-03-08T05:44:29;1.70;70.20
67769;DHT22;54569;52.018;5.584;2024-03-08T05:46:56;1.70;70.20
67769;DHT22;54569;52.018;5.584;2024-03-08T05:49:22;1.70;70.10
67769;DHT22;54569;52.018;5.584;2024-03-08T05:51:48;1.70;70.20
67769;DHT22;54569;52.018;5.584;2024-03-08T05:54:14;1.70;70.30
67769;DHT22;54569;52.018;5.584;2024-03-08T05:56:40;1.70;70.40
67769;DHT22;54569;52.018;5.584;2024-03-08T05:59:10;1.80;70.40
67769;DHT22;54569;52.018;5.584;2024-03-08T06:01:36;1.80;70.10
67769;DHT22;54569;52.018;5.584;2024-03-08T06:04:03;1.80;70.20
67769;DHT22;54569;52.018;5.584;2024-03-08T06:06:29;1.80;69.80
67769;DHT22;54569;52.018;5.584;2024-03-08T06:08:55;1.80;70.20
67769;DHT22;54569;52.018;5.584;2024-03-08T06:11:25;1.80;70.80
67769;DHT22;54569;52.018;5.584;2024-03-08T06:13:54;1.80;70.30
67769;DHT22;54569;52.018;5.584;2024-03-08T06:16:26;1.80;70.00
67769;DHT22;54569;52.018;5.584;2024-03-08T06:18:57;1.80;70.10
67769;DHT22;54569;52.018;5.584;2024-03-08T06:21:26;1.80;69.90
67769;DHT22;54569;52.018;5.584;2024-03-08T06:23:55;1.80;70.00
67769;DHT22;54569;52.018;5.584;2024-03-08T06:26:23;1.80;70.10
67769;DHT22;54569;52.018;5.584;2024-03-08T06:28:50;1.80;70.00
67769;DHT22;54569;52.018;5.584;2024-03-08T06:31:16;1.80;70.00
67769;DHT22;54569;52.018;5.584;2024-03-08T06:33:42;1.90;69.70
67769;DHT22;54569;52.018;5.584;2024-03-08T06:36:09;1.90;69.90
67769;DHT22;54569;52.018;5.584;2024-03-08T06:38:35;2.00;70.00
67769;DHT22;54569;52.018;5.584;2024-03-08T06:41:00;2.00;69.90
67769;DHT22;54569;52.018;5.584;2024-03-08T06:43:29;2.00;69.90
67769;DHT22;54569;52.018;5.584;2024-03-08T06:45:59;2.10;70.00
67769;DHT22;54569;52.018;5.584;2024-03-08T06:48:25;2.10;69.90
67769;DHT22;54569;52.018;5.584;2024-03-08T06:50:51;2.20;69.50
67769;DHT22;54569;52.018;5.584;2024-03-08T06:53:17;2.30;69.30
67769;DHT22;54569;52.018;5.584;2024-03-08T06:55:45;2.30;69.10
67769;DHT22;54569;52.018;5.584;2024-03-08T06:58:11;2.40;68.80
67769;DHT22;54569;52.018;5.584;2024-03-08T07:00:38;2.50;69.10
67769;DHT22;54569;52.018;5.584;2024-03-08T07:03:06;2.60;69.00
67769;DHT22;54569;52.018;5.584;2024-03-08T07:05:33;2.70;68.90
67769;DHT22;54569;52.018;5.584;2024-03-08T07:07:59;2.90;68.50
67769;DHT22;54569;52.018;5.584;2024-03-08T07:10:24;3.10;69.00
67769;DHT22;54569;52.018;5.584;2024-03-08T07:12:54;4.00;68.50
67769;DHT22;54569;52.018;5.584;2024-03-08T07:15:20;5.20;66.90
67769;DHT22;54569;52.018;5.584;2024-03-08T07:17:47;6.40;65.20
67769;DHT22;54569;52.018;5.584;2024-03-08T07:20:15;7.50;62.60
67769;DHT22;54569;52.018;5.584;2024-03-08T07:22:45;8.50;61.00
67769;DHT22;54569;52.018;5.584;2024-03-08T07:25:14;9.20;59.60
67769;DHT22;54569;52.018;5.584;2024-03-08T07:27:54;10.10;58.50
67769;DHT22;54569;52.018;5.584;2024-03-08T07:30:21;11.00;57.10
67769;DHT22;54569;52.018;5.584;2024-03-08T07:33:06;11.90;56.10
67769;DHT22;54569;52.018;5.584;2024-03-08T07:35:38;12.80;54.90
67769;DHT22;54569;52.018;5.584;2024-03-08T07:38:08;13.70;53.60
67769;DHT22;54569;52.018;5.584;2024-03-08T07:40:36;14.20;52.60
67769;DHT22;54569;52.018;5.584;2024-03-08T07:43:04;14.70;52.70
67769;DHT22;54569;52.018;5.584;2024-03-08T07:45:30;15.30;51.50
67769;DHT22;54569;52.018;5.584;2024-03-08T07:47:56;15.80;51.60
67769;DHT22;54569;52.018;5.584;2024-03-08T07:50:22;16.20;50.60
67769;DHT22;54569;52.018;5.584;2024-03-08T07:52:48;16.50;50.60
67769;DHT22;54569;52.018;5.584;2024-03-08T07:55:14;16.90;50.20
67769;DHT22;54569;52.018;5.584;2024-03-08T07:57:40;17.20;50.20
67769;DHT22;54569;52.018;5.584;2024-03-08T08:00:08;17.70;50.10
67769;DHT22;54569;52.018;5.584;2024-03-08T08:02:35;18.10;49.60
67769;DHT22;54569;52.018;5.584;2024-03-08T08:05:01;18.50;49.30
67769;DHT22;54569;52.018;5.584;2024-03-08T08:07:27;18.90;49.20
67769;DHT22;54569;52.018;5.584;2024-03-08T08:09:53;19.20;49.00
67769;DHT22;54569;52.018;5.584;2024-03-08T08:12:19;19.80;48.90
67769;DHT22;54569;52.018;5.584;2024-03-08T08:14:46;20.40;48.40
67769;DHT22;54569;52.018;5.584;2024-03-08T08:17:12;20.70;48.10
67769;DHT22;54569;52.018;5.584;2024-03-08T08:19:41;21.00;48.00
67769;DHT22;54569;52.018;5.584;2024-03-08T08:22:06;20.90;47.60
67769;DHT22;54569;52.018;5.584;2024-03-08T08:24:34;21.00;48.20
67769;DHT22;54569;52.018;5.584;2024-03-08T08:27:03;21.30;47.80
67769;DHT22;54569;52.018;5.584;2024-03-08T08:29:29;21.60;48.40
67769;DHT22;54569;52.018;5.584;2024-03-08T08:31:58;21.70;47.70
67769;DHT22;54569;52.018;5.584;2024-03-08T08:34:25;21.40;47.80
67769;DHT22;54569;52.018;5.584;2024-03-08T08:36:52;21.60;47.80
67769;DHT22;54569;52.018;5.584;2024-03-08T08:39:18;22.00;47.50
67769;DHT22;54569;52.018;5.584;2024-03-08T08:41:44;22.10;47.20
67769;DHT22;54569;52.018;5.584;2024-03-08T08:44:10;22.40;47.10
67769;DHT22;54569;52.018;5.584;2024-03-08T08:46:38;22.50;47.20
67769;DHT22;54569;52.018;5.584;2024-03-08T08:49:04;22.70;46.70
67769;DHT22;54569;52.018;5.584;2024-03-08T08:51:31;23.00;46.40
67769;DHT22;54569;52.018;5.584;2024-03-08T08:53:59;23.50;46.10
67769;DHT22;54569;52.018;5.584;2024-03-08T08:56:25;23.60;45.90
67769;DHT22;54569;52.018;5.584;2024-03-08T08:58:52;23.50;46.00
67769;DHT22;54569;52.018;5.584;2024-03-08T09:01:21;23.80;45.90
67769;DHT22;54569;52.018;5.584;2024-03-08T09:03:46;24.30;45.10
67769;DHT22;54569;52.018;5.584;2024-03-08T09:06:12;24.60;45.00
67769;DHT22;54569;52.018;5.584;2024-03-08T09:08:41;24.70;44.90
67769;DHT22;54569;52.018;5.584;2024-03-08T09:11:07;25.20;44.00
67769;DHT22;54569;52.018;5.584;2024-03-08T09:13:33;25.20;44.60
67769;DHT22;54569;52.018;5.584;2024-03-08T09:15:59;25.50;44.10
67769;DHT22;54569;52.018;5.584;2024-03-08T09:18:25;25.70;43.70
67769;DHT22;54569;52.018;5.584;2024-03-08T09:20:51;26.20;43.60
67769;DHT22;54569;52.018;5.584;2024-03-08T09:23:22;26.60;43.50
67769;DHT22;54569;52.018;5.584;2024-03-08T09:25:48;27.00;41.70
67769;DHT22;54569;52.018;5.584;2024-03-08T09:28:14;27.20;42.80
67769;DHT22;54569;52.018;5.584;2024-03-08T09:30:40;27.40;42.60
67769;DHT22;54569;52.018;5.584;2024-03-08T09:33:06;27.50;42.70
67769;DHT22;54569;52.018;5.584;2024-03-08T09:35:32;27.50;42.40
67769;DHT22;54569;52.018;5.584;2024-03-08T09:37:58;26.90;42.60
67769;DHT22;54569;52.018;5.584;2024-03-08T09:40:24;26.60;42.80
67769;DHT22;54569;52.018;5.584;2024-03-08T09:42:51;26.80;42.70
67769;DHT22;54569;52.018;5.584;2024-03-08T09:45:20;26.70;42.70
67769;DHT22;54569;52.018;5.584;2024-03-08T09:47:50;26.90;42.30
67769;DHT22;54569;52.018;5.584;2024-03-08T09:50:17;26.60;42.10
67769;DHT22;54569;52.018;5.584;2024-03-08T09:52:47;26.40;42.50
67769;DHT22;54569;52.018;5.584;2024-03-08T09:55:13;26.40;41.70
67769;DHT22;54569;52.018;5.584;2024-03-08T09:57:43;26.30;42.50
67769;DHT22;54569;52.018;5.584;2024-03-08T10:00:29;26.10;41.30
67769;DHT22;54569;52.018;5.584;2024-03-08T10:03:00;26.30;42.60
67769;DHT22;54569;52.018;5.584;2024-03-08T10:05:26;26.60;41.70
67769;DHT22;54569;52.018;5.584;2024-03-08T10:07:52;26.70;41.50
67769;DHT22;54569;52.018;5.584;2024-03-08T10:10:18;27.00;41.80
67769;DHT22;54569;52.018;5.584;2024-03-08T10:12:45;27.50;41.20
67769;DHT22;54569;52.018;5.584;2024-03-08T10:15:11;27.90;40.40
67769;DHT22;54569;52.018;5.584;2024-03-08T10:17:42;27.50;40.40
67769;DHT22;54569;52.018;5.584;2024-03-08T10:20:18;27.30;40.30
67769;DHT22;54569;52.018;5.584;2024-03-08T10:22:44;26.70;39.40
67769;DHT22;54569;52.018;5.584;2024-03-08T10:25:11;26.20;41.00
67769;DHT22;54569;52.018;5.584;2024-03-08T10:27:40;26.20;40.90
67769;DHT22;54569;52.018;5.584;2024-03-08T10:30:12;26.10;40.40
67769;DHT22;54569;52.018;5.584;2024-03-08T10:32:39;26.30;39.80
67769;DHT22;54569;52.018;5.584;2024-03-08T10:35:10;26.50;40.70
67769;DHT22;54569;52.018;5.584;2024-03-08T10:37:48;26.30;40.10
67769;DHT22;54569;52.018;5.584;2024-03-08T10:40:19;25.80;38.80
67769;DHT22;54569;52.018;5.584;2024-03-08T10:42:54;25.90;38.80
67769;DHT22;54569;52.018;5.584;2024-03-08T10:45:26;26.50;38.40
67769;DHT22;54569;52.018;5.584;2024-03-08T10:48:27;26.70;39.10
67769;DHT22;54569;52.018;5.584;2024-03-08T10:50:50;26.80;37.70
67769;DHT22;54569;52.018;5.584;2024-03-08T10:53:18;27.50;39.10
67769;DHT22;54569;52.018;5.584;2024-03-08T10:55:49;27.40;38.80
67769;DHT22;54569;52.018;5.584;2024-03-08T10:58:17;27.40;37.90
67769;DHT22;54569;52.018;5.584;2024-03-08T11:00:43;26.90;39.00
67769;DHT22;54569;52.018;5.584;2024-03-08T11:03:47;27.20;38.80
67769;DHT22;54569;52.018;5.584;2024-03-08T11:06:41;27.50;35.50
67769;DHT22;54569;52.018;5.584;2024-03-08T11:09:30;28.00;38.30
67769;DHT22;54569;52.018;5.584;2024-03-08T11:12:18;28.60;36.90
67769;DHT22;54569;52.018;5.584;2024-03-08T11:14:46;28.60;35.60
67769;DHT22;54569;52.018;5.584;2024-03-08T11:17:15;28.50;37.70
67769;DHT22;54569;52.018;5.584;2024-03-08T11:19:47;28.40;38.10
67769;DHT22;54569;52.018;5.584;2024-03-08T11:22:27;28.30;37.30
67769;DHT22;54569;52.018;5.584;2024-03-08T11:24:53;28.70;34.80
67769;DHT22;54569;52.018;5.584;2024-03-08T11:27:19;28.60;37.70
67769;DHT22;54569;52.018;5.584;2024-03-08T11:30:05;28.60;37.60
67769;DHT22;54569;52.018;5.584;2024-03-08T11:32:38;28.60;35.90
67769;DHT22;54569;52.018;5.584;2024-03-08T11:35:08;28.30;37.30
67769;DHT22;54569;52.018;5.584;2024-03-08T11:37:44;27.70;37.20
67769;DHT22;54569;52.018;5.584;2024-03-08T11:40:14;27.40;38.10
67769;DHT22;54569;52.018;5.584;2024-03-08T11:42:48;27.10;36.60
67769;DHT22;54569;52.018;5.584;2024-03-08T11:45:15;26.70;37.80
67769;DHT22;54569;52.018;5.584;2024-03-08T11:47:46;26.70;38.10
67769;DHT22;54569;52.018;5.584;2024-03-08T11:50:13;26.60;37.80
67769;DHT22;54569;52.018;5.584;2024-03-08T11:52:39;26.40;38.00
67769;DHT22;54569;52.018;5.584;2024-03-08T11:55:06;26.00;38.00
67769;DHT22;54569;52.018;5.584;2024-03-08T11:57:32;25.50;38.20
67769;DHT22;54569;52.018;5.584;2024-03-08T11:59:58;25.20;38.40
67769;DHT22;54569;52.018;5.584;2024-03-08T12:02:34;24.90;38.40
67769;DHT22;54569;52.018;5.584;2024-03-08T12:05:08;24.60;38.60
67769;DHT22;54569;52.018;5.584;2024-03-08T12:07:35;24.20;38.60
67769;DHT22;54569;52.018;5.584;2024-03-08T12:10:34;24.00;38.80
67769;DHT22;54569;52.018;5.584;2024-03-08T12:13:00;23.60;38.20
67769;DHT22;54569;52.018;5.584;2024-03-08T12:15:28;23.10;39.10
67769;DHT22;54569;52.018;5.584;2024-03-08T12:17:54;22.70;39.30
67769;DHT22;54569;52.018;5.584;2024-03-08T12:20:26;22.70;39.60
67769;DHT22;54569;52.018;5.584;2024-03-08T12:22:53;22.60;38.50
67769;DHT22;54569;52.018;5.584;2024-03-08T12:25:22;22.30;39.20
67769;DHT22;54569;52.018;5.584;2024-03-08T12:27:48;22.60;38.70
67769;DHT22;54569;52.018;5.584;2024-03-08T12:30:24;22.80;37.50
67769;DHT22;54569;52.018;5.584;2024-03-08T12:32:59;22.00;37.40
67769;DHT22;54569;52.018;5.584;2024-03-08T12:35:29;20.70;38.10
67769;DHT22;54569;52.018;5.584;2024-03-08T12:37:57;19.70;40.30
67769;DHT22;54569;52.018;5.584;2024-03-08T12:40:27;18.90;41.20
67769;DHT22;54569;52.018;5.584;2024-03-08T12:42:55;18.00;41.60
67769;DHT22;54569;52.018;5.584;2024-03-08T12:45:24;17.10;42.70
67769;DHT22;54569;52.018;5.584;2024-03-08T12:47:54;16.30;43.30
67769;DHT22;54569;52.018;5.584;2024-03-08T12:50:21;15.70;43.80
67769;DHT22;54569;52.018;5.584;2024-03-08T12:52:47;15.20;44.30
67769;DHT22;54569;52.018;5.584;2024-03-08T12:55:14;14.90;44.40
67769;DHT22;54569;52.018;5.584;2024-03-08T12:57:42;14.80;45.00
67769;DHT22;54569;52.018;5.584;2024-03-08T13:00:08;14.70;44.60
67769;DHT22;54569;52.018;5.584;2024-03-08T13:02:47;14.60;44.70
67769;DHT22;54569;52.018;5.584;2024-03-08T13:05:14;14.40;44.40
67769;DHT22;54569;52.018;5.584;2024-03-08T13:07:41;14.10;44.60
67769;DHT22;54569;52.018;5.584;2024-03-08T13:10:15;14.00;44.80
67769;DHT22;54569;52.018;5.584;2024-03-08T13:12:44;13.80;45.60
67769;DHT22;54569;52.018;5.584;2024-03-08T13:15:10;13.50;45.10
67769;DHT22;54569;52.018;5.584;2024-03-08T13:17:48;13.20;45.10
67769;DHT22;54569;52.018;5.584;2024-03-08T13:20:15;13.00;45.30
67769;DHT22;54569;52.018;5.584;2024-03-08T13:22:48;13.00;45.30
67769;DHT22;54569;52.018;5.584;2024-03-08T13:25:14;12.80;45.50
67769;DHT22;54569;52.018;5.584;2024-03-08T13:27:40;12.80;45.40
67769;DHT22;54569;52.018;5.584;2024-03-08T13:30:09;12.80;45.70
67769;DHT22;54569;52.018;5.584;2024-03-08T13:32:40;12.80;45.80
67769;DHT22;54569;52.018;5.584;2024-03-08T13:35:06;12.80;46.00
67769;DHT22;54569;52.018;5.584;2024-03-08T13:37:41;12.80;45.80
67769;DHT22;54569;52.018;5.584;2024-03-08T13:40:08;12.90;45.90
67769;DHT22;54569;52.018;5.584;2024-03-08T13:42:42;13.00;45.80
67769;DHT22;54569;52.018;5.584;2024-03-08T13:45:09;12.80;45.60
67769;DHT22;54569;52.018;5.584;2024-03-08T13:47:41;12.60;45.80
67769;DHT22;54569;52.018;5.584;2024-03-08T13:50:08;12.50;46.30
67769;DHT22;54569;52.018;5.584;2024-03-08T13:52:41;12.40;46.20
67769;DHT22;54569;52.018;5.584;2024-03-08T13:55:09;12.30;46.60
67769;DHT22;54569;52.018;5.584;2024-03-08T13:57:35;12.20;46.60
67769;DHT22;54569;52.018;5.584;2024-03-08T14:00:02;12.20;46.70
67769;DHT22;54569;52.018;5.584;2024-03-08T14:02:38;12.20;46.70
67769;DHT22;54569;52.018;5.584;2024-03-08T14:05:09;12.30;47.00
67769;DHT22;54569;52.018;5.584;2024-03-08T14:07:36;12.30;47.10
67769;DHT22;54569;52.018;5.584;2024-03-08T14:10:03;12.30;46.80
67769;DHT22;54569;52.018;5.584;2024-03-08T14:12:29;12.30;46.90
67769;DHT22;54569;52.018;5.584;2024-03-08T14:14:56;12.30;47.10
67769;DHT22;54569;52.018;5.584;2024-03-08T14:17:25;12.30;47.40
67769;DHT22;54569;52.018;5.584;2024-03-08T14:19:53;12.20;47.00
67769;DHT22;54569;52.018;5.584;2024-03-08T14:22:20;12.10;47.40
67769;DHT22;54569;52.018;5.584;2024-03-08T14:24:46;12.10;47.40
67769;DHT22;54569;52.018;5.584;2024-03-08T14:27:11;12.10;47.50
67769;DHT22;54569;52.018;5.584;2024-03-08T14:29:38;12.00;47.50
67769;DHT22;54569;52.018;5.584;2024-03-08T14:32:07;12.00;47.80
67769;DHT22;54569;52.018;5.584;2024-03-08T14:34:34;12.00;47.60
67769;DHT22;54569;52.018;5.584;2024-03-08T14:37:01;12.00;47.50
67769;DHT22;54569;52.018;5.584;2024-03-08T14:39:31;11.90;47.70
67769;DHT22;54569;52.018;5.584;2024-03-08T14:42:00;11.90;47.60
67769;DHT22;54569;52.018;5.584;2024-03-08T14:44:26;11.80;47.80
67769;DHT22;54569;52.018;5.584;2024-03-08T14:46:52;11.80;47.90
67769;DHT22;54569;52.018;5.584;2024-03-08T14:49:18;11.70;47.80
67769;DHT22;54569;52.018;5.584;2024-03-08T14:51:47;11.70;47.90
67769;DHT22;54569;52.018;5.584;2024-03-08T14:54:13;11.70;48.40
67769;DHT22;54569;52.018;5.584;2024-03-08T14:56:39;11.70;48.30
67769;DHT22;54569;52.018;5.584;2024-03-08T14:59:08;11.70;48.10
67769;DHT22;54569;52.018;5.584;2024-03-08T15:01:37;11.70;48.30
67769;DHT22;54569;52.018;5.584;2024-03-08T15:04:03;11.70;48.40
67769;DHT22;54569;52.018;5.584;2024-03-08T15:06:35;11.70;48.30
67769;DHT22;54569;52.018;5.584;2024-03-08T15:09:03;11.60;48.30
67769;DHT22;54569;52.018;5.584;2024-03-08T15:11:45;11.60;48.40
67769;DHT22;54569;52.018;5.584;2024-03-08T15:14:11;11.50;48.70
67769;DHT22;54569;52.018;5.584;2024-03-08T15:16:37;11.50;48.50
67769;DHT22;54569;52.018;5.584;2024-03-08T15:19:05;11.40;48.60
67769;DHT22;54569;52.018;5.584;2024-03-08T15:21:31;11.40;48.60
67769;DHT22;54569;52.018;5.584;2024-03-08T15:23:57;11.30;48.70
67769;DHT22;54569;52.018;5.584;2024-03-08T15:26:23;11.30;48.70
67769;DHT22;54569;52.018;5.584;2024-03-08T15:28:51;11.30;48.80
67769;DHT22;54569;52.018;5.584;2024-03-08T15:31:19;11.30;48.90
67769;DHT22;54569;52.018;5.584;2024-03-08T15:33:46;11.30;49.00
67769;DHT22;54569;52.018;5.584;2024-03-08T15:36:17;11.30;49.20
67769;DHT22;54569;52.018;5.584;2024-03-08T15:38:46;11.30;49.10
67769;DHT22;54569;52.018;5.584;2024-03-08T15:41:15;11.20;49.30
67769;DHT22;54569;52.018;5.584;2024-03-08T15:43:43;11.20;49.50